createdAt,value
2024-01-15T00:04:06.096Z,26.83
2024-01-15T00:08:23.692Z,29.92
2024-01-15T00:12:41.462Z,27.88
2024-01-15T00:16:59.573Z,25.08
2024-01-15T00:21:17.390Z,26.75
2024-01-15T00:25:35.303Z,28.35
2024-01-15T00:29:53.707Z,28.95
2024-01-15T00:34:12.096Z,30.20
2024-01-15T00:38:30.513Z,29.73
2024-01-15T00:42:49.394Z,28.27
2024-01-15T00:47:07.175Z,31.27
2024-01-15T00:51:24.782Z,27.67
2024-01-15T00:55:43.025Z,31.20
2024-01-15T01:00:03.771Z,30.23
2024-01-15T01:04:23.921Z,29.00
2024-01-15T01:08:41.954Z,31.67
2024-01-15T01:17:17.435Z,26.85
2024-01-15T01:21:35.687Z,26.30
2024-01-15T01:25:53.684Z,23.70
2024-01-15T01:34:31.238Z,25.73
2024-01-15T01:38:50.633Z,27.42
2024-01-15T01:43:10.090Z,28.48
2024-01-15T01:47:27.932Z,28.88
2024-01-15T01:51:46.234Z,34.33
2024-01-15T01:56:04.755Z,30.90
2024-01-15T02:00:22.228Z,30.77
2024-01-15T02:04:40.734Z,31.00
2024-01-15T02:08:58.433Z,33.28
2024-01-15T02:13:16.171Z,31.73
2024-01-15T02:17:33.689Z,31.08
2024-01-15T02:21:51.460Z,32.33
2024-01-15T02:26:10.533Z,30.25
2024-01-15T02:30:29.792Z,32.17
2024-01-15T02:34:47.543Z,30.67
2024-01-15T02:39:05.466Z,29.10
2024-01-15T02:43:23.022Z,32.40
2024-01-15T02:47:40.773Z,34.13
2024-01-15T02:51:58.538Z,34.67
2024-01-15T02:56:16.358Z,33.58
2024-01-15T03:00:35.479Z,39.15
2024-01-15T03:04:53.874Z,37.85
2024-01-15T03:09:12.336Z,38.28
2024-01-15T03:13:30.070Z,42.25
2024-01-15T03:17:48.107Z,38.90
2024-01-15T03:22:05.912Z,34.28
2024-01-15T03:26:24.215Z,31.98
2024-01-15T03:30:43.255Z,36.00
2024-01-15T03:35:01.893Z,32.55
2024-01-15T03:39:20.292Z,35.78
2024-01-15T03:43:38.002Z,36.65
2024-01-15T03:47:55.963Z,36.67
2024-01-15T03:52:13.637Z,40.03
2024-01-15T03:56:31.301Z,36.40
2024-01-15T04:00:49.515Z,38.42
2024-01-15T04:05:07.387Z,38.83
2024-01-15T04:09:25.382Z,38.75
2024-01-15T04:13:43.438Z,38.95
2024-01-15T04:26:37.491Z,37.22
2024-01-15T04:30:55.521Z,37.53
2024-01-15T04:39:32.312Z,34.30
2024-01-15T04:43:50.204Z,35.15
2024-01-15T04:48:08.356Z,31.73
2024-01-15T04:52:27.104Z,38.30
2024-01-15T04:56:45.852Z,32.75
2024-01-15T05:01:03.635Z,31.65
2024-01-15T05:05:21.764Z,33.15
2024-01-15T05:09:39.577Z,28.55
2024-01-15T05:13:57.212Z,25.17
2024-01-15T05:18:15.474Z,27.65
2024-01-15T05:22:33.262Z,26.15
2024-01-15T05:26:50.802Z,23.23
2024-01-15T05:31:13.307Z,22.20
2024-01-15T05:35:31.380Z,22.17
2024-01-15T05:44:06.934Z,21.17
2024-01-15T05:48:26.130Z,22.55
2024-01-15T05:52:46.783Z,24.52
2024-01-15T05:57:04.534Z,23.23
2024-01-15T06:01:21.934Z,21.27
2024-01-15T06:05:41.473Z,26.88
2024-01-15T06:09:59.222Z,26.20
2024-01-15T06:14:16.896Z,21.85
2024-01-15T06:18:34.726Z,26.13
2024-01-15T06:22:52.738Z,23.20
2024-01-15T06:27:11.907Z,23.05
2024-01-15T06:31:31.273Z,24.00
2024-01-15T06:35:50.958Z,23.55
2024-01-15T06:40:10.090Z,25.75
2024-01-15T06:44:27.452Z,28.17
2024-01-15T06:48:46.885Z,29.52
2024-01-15T06:53:04.632Z,26.63
2024-01-15T06:57:21.983Z,29.73
2024-01-15T07:01:39.627Z,27.20
2024-01-15T07:05:58.171Z,24.23
2024-01-15T07:10:15.687Z,22.67
2024-01-15T07:14:33.788Z,29.77
2024-01-15T07:18:51.364Z,24.02
2024-01-15T07:27:27.057Z,27.65
2024-01-15T07:31:51.895Z,25.88
2024-01-15T07:36:12.975Z,27.73
2024-01-15T07:40:30.531Z,26.48
2024-01-15T07:44:48.280Z,23.80
2024-01-15T07:49:09.383Z,24.98
2024-01-15T07:53:27.038Z,29.20
2024-01-15T07:57:50.666Z,26.08
2024-01-15T08:02:11.152Z,26.25
2024-01-15T08:06:29.023Z,22.00
2024-01-15T08:15:06.545Z,26.75
2024-01-15T08:19:25.154Z,23.05
2024-01-15T08:23:43.209Z,26.58
2024-01-15T08:28:01.136Z,27.30
2024-01-15T08:32:18.584Z,21.58
2024-01-15T08:36:37.728Z,28.35
2024-01-15T08:40:58.126Z,41.08
2024-01-15T08:45:16.192Z,20.52
2024-01-15T08:53:51.060Z,24.73
2024-01-15T08:58:09.686Z,21.08
2024-01-15T09:02:30.550Z,21.42
2024-01-15T09:06:48.583Z,25.88
2024-01-15T09:15:23.464Z,17.25
2024-01-15T09:19:41.351Z,17.95
2024-01-15T09:23:59.455Z,20.67
2024-01-15T09:28:17.421Z,19.60
2024-01-15T09:32:35.095Z,17.60
2024-01-15T09:36:53.310Z,18.88
2024-01-15T09:45:28.675Z,16.95
2024-01-15T09:49:46.446Z,15.73
2024-01-15T09:54:05.205Z,16.58
2024-01-15T09:58:22.800Z,16.13
2024-01-15T10:02:41.622Z,16.38
2024-01-15T10:07:02.172Z,16.60
2024-01-15T10:11:19.930Z,17.88
2024-01-15T10:15:39.586Z,15.70
2024-01-15T10:19:57.864Z,15.38
2024-01-15T10:24:15.967Z,16.75
2024-01-15T10:28:35.849Z,13.68
2024-01-15T10:33:04.569Z,14.15
2024-01-15T10:37:22.755Z,14.55
2024-01-15T10:41:41.387Z,14.48
2024-01-15T10:45:58.867Z,12.73
2024-01-15T10:50:16.810Z,15.50
2024-01-15T10:54:38.446Z,14.07
2024-01-15T10:59:00.611Z,14.48
2024-01-15T11:03:20.140Z,13.90
2024-01-15T11:07:42.936Z,14.23
2024-01-15T11:12:12.833Z,13.30
2024-01-15T11:16:54.940Z,11.88
2024-01-15T11:21:19.790Z,14.23
2024-01-15T11:25:38.614Z,12.10
2024-01-15T11:30:18.521Z,12.13
2024-01-15T11:35:16.369Z,13.05
2024-01-15T11:39:34.277Z,12.48
2024-01-15T11:43:51.801Z,13.45
2024-01-15T11:48:17.477Z,13.38
2024-01-15T11:52:37.478Z,10.60
2024-01-15T11:56:56.480Z,12.35
2024-01-15T12:01:14.070Z,10.60
2024-01-15T12:05:31.899Z,14.00
2024-01-15T12:09:52.067Z,13.65
2024-01-15T12:14:09.665Z,14.63
2024-01-15T12:18:28.456Z,11.18
2024-01-15T12:22:56.574Z,12.82
2024-01-15T12:27:19.515Z,15.25
2024-01-15T12:31:40.537Z,13.68
2024-01-15T12:35:59.834Z,14.68
2024-01-15T12:40:21.697Z,11.20
2024-01-15T12:44:40.427Z,14.43
2024-01-15T12:48:58.795Z,11.57
2024-01-15T12:53:17.079Z,11.52
2024-01-15T13:01:53.385Z,11.10
2024-01-15T13:10:31.467Z,11.48
2024-01-15T13:14:49.343Z,12.45
2024-01-15T13:19:08.101Z,8.80
2024-01-15T13:23:25.430Z,9.77
2024-01-15T13:27:43.321Z,14.48
2024-01-15T13:32:01.900Z,11.13
2024-01-15T13:36:19.667Z,10.38
2024-01-15T13:40:38.102Z,11.48
2024-01-15T13:44:55.704Z,11.77
2024-01-15T13:49:16.264Z,10.18
2024-01-15T13:53:34.079Z,7.68
2024-01-15T13:57:51.778Z,11.30
2024-01-15T14:02:11.262Z,12.63
2024-01-15T14:06:29.223Z,8.68
2024-01-15T14:10:46.881Z,11.20
2024-01-15T14:15:05.066Z,10.82
2024-01-15T14:23:41.313Z,11.87
2024-01-15T14:27:59.818Z,14.02
2024-01-15T14:32:17.814Z,13.48
2024-01-15T14:36:36.241Z,12.95
2024-01-15T14:40:53.789Z,12.60
2024-01-15T14:45:13.344Z,12.47
2024-01-15T14:49:33.331Z,12.27
2024-01-15T14:53:50.775Z,13.30
2024-01-15T14:58:09.317Z,12.87
2024-01-15T15:02:31.513Z,13.52
2024-01-15T15:06:51.582Z,15.80
2024-01-15T15:11:11.519Z,15.70
2024-01-15T15:15:29.153Z,13.60
2024-01-15T15:19:47.218Z,12.23
2024-01-15T15:24:04.997Z,15.93
2024-01-15T15:32:41.071Z,14.55
2024-01-15T15:36:58.824Z,15.07
2024-01-15T15:41:16.456Z,13.43
2024-01-15T15:45:34.095Z,13.38
2024-01-15T15:49:52.251Z,11.97
2024-01-15T15:54:10.723Z,14.23
2024-01-15T15:58:28.233Z,12.88
2024-01-15T16:02:46.619Z,17.27
2024-01-15T16:07:09.450Z,16.98
2024-01-15T16:11:27.198Z,17.63
2024-01-15T16:15:45.805Z,16.80
2024-01-15T16:23:28.929Z,16.45
2024-01-15T16:24:51.136Z,15.63
2024-01-15T16:29:11.043Z,17.30
2024-01-15T16:33:29.119Z,15.63
2024-01-15T16:37:46.979Z,15.85
2024-01-15T16:42:06.106Z,17.42
2024-01-15T16:46:24.687Z,15.55
2024-01-15T16:50:42.686Z,15.68
2024-01-15T16:55:00.554Z,13.20
2024-01-15T16:59:18.180Z,13.63
2024-01-15T17:03:37.596Z,16.13
2024-01-15T17:07:56.479Z,12.68
2024-01-15T17:12:14.182Z,13.93
2024-01-15T17:16:31.891Z,13.93
2024-01-15T17:20:50.568Z,13.30
2024-01-15T17:25:09.016Z,15.82
2024-01-15T17:29:26.727Z,13.80
2024-01-15T17:33:44.345Z,12.43
2024-01-15T17:38:02.022Z,13.88
2024-01-15T17:42:20.276Z,12.05
2024-01-15T17:46:37.772Z,12.65
2024-01-15T17:50:55.641Z,8.70
2024-01-15T17:55:13.857Z,9.80
2024-01-15T18:03:50.220Z,7.03
2024-01-15T18:12:27.063Z,10.70
2024-01-15T18:16:49.858Z,6.95
2024-01-15T18:21:07.399Z,17.92
2024-01-15T18:25:26.052Z,8.77
2024-01-15T18:29:46.316Z,10.55
2024-01-15T18:34:04.629Z,8.75
2024-01-15T18:38:22.782Z,7.80
2024-01-15T18:42:40.722Z,9.57
2024-01-15T18:46:59.031Z,6.63
2024-01-15T18:51:25.816Z,8.48
2024-01-15T18:55:43.932Z,7.43
2024-01-15T19:00:01.725Z,5.50
2024-01-15T19:04:20.008Z,9.52
2024-01-15T19:12:55.759Z,6.27
2024-01-15T19:17:13.246Z,4.77
2024-01-15T19:21:31.758Z,7.40
2024-01-15T19:25:52.084Z,5.65
2024-01-15T19:30:14.314Z,8.65
2024-01-15T19:34:34.596Z,5.95
2024-01-15T19:38:54.130Z,7.93
2024-01-15T19:43:13.118Z,3.92
2024-01-15T19:47:39.855Z,5.97
2024-01-15T19:52:03.206Z,6.13
2024-01-15T19:56:27.924Z,5.78
2024-01-15T20:00:49.582Z,10.38
2024-01-15T20:05:10.818Z,9.13
2024-01-15T20:09:31.771Z,5.90
2024-01-15T20:13:53.872Z,8.48
2024-01-15T20:18:12.282Z,7.47
2024-01-15T20:22:35.573Z,8.02
2024-01-15T20:26:54.405Z,8.52
2024-01-15T20:31:14.375Z,8.13
2024-01-15T20:35:37.884Z,7.60
2024-01-15T20:39:59.228Z,6.95
2024-01-15T20:44:20.487Z,5.55
2024-01-15T20:48:42.371Z,3.67
2024-01-15T20:53:03.750Z,5.20
2024-01-15T20:57:24.301Z,3.83
2024-01-15T21:01:41.973Z,6.07
2024-01-15T21:06:00.892Z,8.35
2024-01-15T21:10:25.752Z,8.57
2024-01-15T21:14:49.148Z,7.20
2024-01-15T21:19:06.658Z,5.45
2024-01-15T21:23:26.398Z,4.60
2024-01-15T21:27:44.740Z,4.53
2024-01-15T21:32:02.934Z,5.72
2024-01-15T21:36:23.151Z,4.35
2024-01-15T21:40:41.119Z,5.72
2024-01-15T21:49:16.401Z,7.38
2024-01-15T21:53:34.657Z,4.78
2024-01-15T22:02:11.252Z,5.00
2024-01-15T22:06:30.338Z,5.63
2024-01-15T22:10:48.219Z,4.32
2024-01-15T22:15:06.625Z,3.35
2024-01-15T22:19:25.675Z,7.15
2024-01-15T22:23:43.580Z,6.40
2024-01-15T22:28:01.331Z,6.45
2024-01-15T22:32:19.695Z,3.53
2024-01-15T22:36:37.611Z,5.53
2024-01-15T22:40:55.547Z,7.07
2024-01-15T22:45:16.646Z,3.97
2024-01-15T22:49:35.970Z,4.45
2024-01-15T22:53:55.009Z,6.32
2024-01-15T22:58:12.928Z,6.88
2024-01-15T23:02:30.846Z,9.40
2024-01-15T23:06:49.608Z,7.95
2024-01-15T23:11:12.448Z,5.15
2024-01-15T23:15:33.331Z,7.65
2024-01-15T23:19:54.144Z,7.90
2024-01-15T23:24:14.225Z,6.63
2024-01-15T23:28:34.021Z,5.43
2024-01-15T23:32:55.814Z,5.07
2024-01-15T23:37:16.768Z,5.38
2024-01-15T23:41:35.010Z,4.85
2024-01-15T23:45:59.453Z,6.75
2024-01-15T23:50:21.362Z,4.13
2024-01-15T23:58:57.419Z,6.97
